sensor_id;sensor_type;location;lat;lon;timestamp;P1;durP1;ratioP1;P2;durP2;ratioP2
35745;SDS011;21870;42.812;74.628;2023-03-13T00:03:46;1.25;;;1.25;;
35745;SDS011;21870;42.812;74.628;2023-03-13T00:06:13;1.40;;;1.30;;
35745;SDS011;21870;42.812;74.628;2023-03-13T00:08:43;1.92;;;1.83;;
35745;SDS011;21870;42.812;74.628;2023-03-13T00:11:09;3.30;;;3.10;;
35745;SDS011;21870;42.812;74.628;2023-03-13T00:13:37;3.38;;;3.13;;
35745;SDS011;21870;42.812;74.628;2023-03-13T00:16:04;2.60;;;2.40;;
35745;SDS011;21870;42.812;74.628;2023-03-13T00:18:50;2.60;;;2.40;;
35745;SDS011;21870;42.812;74.628;2023-03-13T00:21:18;2.83;;;2.63;;
35745;SDS011;21870;42.812;74.628;2023-03-13T00:23:46;3.60;;;3.30;;
35745;SDS011;21870;42.812;74.628;2023-03-13T00:26:14;3.45;;;3.20;;
35745;SDS011;21870;42.812;74.628;2023-03-13T00:28:42;2.78;;;2.58;;
35745;SDS011;21870;42.812;74.628;2023-03-13T00:31:09;2.90;;;2.70;;
35745;SDS011;21870;42.812;74.628;2023-03-13T00:33:41;2.58;;;2.35;;
35745;SDS011;21870;42.812;74.628;2023-03-13T00:36:19;2.40;;;2.25;;
35745;SDS011;21870;42.812;74.628;2023-03-13T00:38:50;4.13;;;3.83;;
35745;SDS011;21870;42.812;74.628;2023-03-13T00:41:19;4.82;;;4.38;;
35745;SDS011;21870;42.812;74.628;2023-03-13T00:43:46;2.45;;;2.25;;
35745;SDS011;21870;42.812;74.628;2023-03-13T00:46:14;2.58;;;1.95;;
35745;SDS011;21870;42.812;74.628;2023-03-13T00:48:42;1.73;;;1.65;;
35745;SDS011;21870;42.812;74.628;2023-03-13T00:51:08;1.80;;;1.70;;
35745;SDS011;21870;42.812;74.628;2023-03-13T00:53:35;1.88;;;1.77;;
35745;SDS011;21870;42.812;74.628;2023-03-13T00:56:02;1.98;;;1.88;;
35745;SDS011;21870;42.812;74.628;2023-03-13T00:58:31;2.05;;;1.95;;
35745;SDS011;21870;42.812;74.628;2023-03-13T01:04:00;2.70;;;2.53;;
35745;SDS011;21870;42.812;74.628;2023-03-13T01:06:29;4.38;;;4.07;;
35745;SDS011;21870;42.812;74.628;2023-03-13T01:08:56;4.10;;;3.80;;
35745;SDS011;21870;42.812;74.628;2023-03-13T01:11:26;6.15;;;5.65;;
35745;SDS011;21870;42.812;74.628;2023-03-13T01:13:58;5.35;;;4.95;;
35745;SDS011;21870;42.812;74.628;2023-03-13T01:16:26;4.40;;;4.07;;
35745;SDS011;21870;42.812;74.628;2023-03-13T01:18:55;3.63;;;3.40;;
35745;SDS011;21870;42.812;74.628;2023-03-13T01:21:23;3.65;;;3.45;;
35745;SDS011;21870;42.812;74.628;2023-03-13T01:23:50;3.65;;;3.22;;
35745;SDS011;21870;42.812;74.628;2023-03-13T01:26:18;3.53;;;3.22;;
35745;SDS011;21870;42.812;74.628;2023-03-13T01:28:44;4.00;;;3.70;;
35745;SDS011;21870;42.812;74.628;2023-03-13T01:33:38;3.67;;;3.38;;
35745;SDS011;21870;42.812;74.628;2023-03-13T01:36:05;3.40;;;3.20;;
35745;SDS011;21870;42.812;74.628;2023-03-13T01:38:31;3.15;;;2.92;;
35745;SDS011;21870;42.812;74.628;2023-03-13T01:40:57;3.53;;;3.22;;
35745;SDS011;21870;42.812;74.628;2023-03-13T01:43:27;9.02;;;3.03;;
35745;SDS011;21870;42.812;74.628;2023-03-13T01:46:09;3.00;;;2.70;;
35745;SDS011;21870;42.812;74.628;2023-03-13T01:53:53;3.30;;;3.10;;
35745;SDS011;21870;42.812;74.628;2023-03-13T01:56:33;2.17;;;2.08;;
35745;SDS011;21870;42.812;74.628;2023-03-13T01:59:22;4.10;;;2.60;;
35745;SDS011;21870;42.812;74.628;2023-03-13T02:01:53;2.53;;;2.38;;
35745;SDS011;21870;42.812;74.628;2023-03-13T02:04:23;2.63;;;2.42;;
35745;SDS011;21870;42.812;74.628;2023-03-13T02:06:52;2.60;;;2.40;;
35745;SDS011;21870;42.812;74.628;2023-03-13T02:09:23;4.30;;;2.40;;
35745;SDS011;21870;42.812;74.628;2023-03-13T02:14:27;4.20;;;3.15;;
35745;SDS011;21870;42.812;74.628;2023-03-13T02:16:57;2.70;;;2.50;;
35745;SDS011;21870;42.812;74.628;2023-03-13T02:22:12;2.25;;;2.00;;
35745;SDS011;21870;42.812;74.628;2023-03-13T02:27:37;3.17;;;2.97;;
35745;SDS011;21870;42.812;74.628;2023-03-13T02:30:06;3.30;;;3.10;;
35745;SDS011;21870;42.812;74.628;2023-03-13T02:32:34;3.38;;;3.17;;
35745;SDS011;21870;42.812;74.628;2023-03-13T02:35:03;5.30;;;4.03;;
35745;SDS011;21870;42.812;74.628;2023-03-13T02:37:36;4.28;;;3.90;;
35745;SDS011;21870;42.812;74.628;2023-03-13T02:40:04;4.57;;;3.70;;
35745;SDS011;21870;42.812;74.628;2023-03-13T02:42:40;5.03;;;4.53;;
35745;SDS011;21870;42.812;74.628;2023-03-13T02:45:09;4.72;;;4.43;;
35745;SDS011;21870;42.812;74.628;2023-03-13T02:47:38;5.63;;;5.25;;
35745;SDS011;21870;42.812;74.628;2023-03-13T02:50:04;7.32;;;6.72;;
35745;SDS011;21870;42.812;74.628;2023-03-13T02:52:37;9.45;;;8.55;;
35745;SDS011;21870;42.812;74.628;2023-03-13T02:55:11;8.70;;;7.82;;
35745;SDS011;21870;42.812;74.628;2023-03-13T02:57:42;8.93;;;8.18;;
35745;SDS011;21870;42.812;74.628;2023-03-13T03:00:09;10.20;;;9.40;;
35745;SDS011;21870;42.812;74.628;2023-03-13T03:02:43;12.50;;;11.55;;
35745;SDS011;21870;42.812;74.628;2023-03-13T03:05:10;13.13;;;11.88;;
35745;SDS011;21870;42.812;74.628;2023-03-13T03:07:37;16.25;;;14.93;;
35745;SDS011;21870;42.812;74.628;2023-03-13T03:10:03;16.10;;;14.80;;
35745;SDS011;21870;42.812;74.628;2023-03-13T03:12:30;17.50;;;15.90;;
35745;SDS011;21870;42.812;74.628;2023-03-13T03:14:56;15.10;;;13.90;;
35745;SDS011;21870;42.812;74.628;2023-03-13T03:17:22;15.75;;;14.45;;
35745;SDS011;21870;42.812;74.628;2023-03-13T03:19:48;14.90;;;13.80;;
35745;SDS011;21870;42.812;74.628;2023-03-13T03:22:14;13.02;;;12.02;;
35745;SDS011;21870;42.812;74.628;2023-03-13T03:24:40;11.55;;;9.70;;
35745;SDS011;21870;42.812;74.628;2023-03-13T03:27:06;10.70;;;8.82;;
35745;SDS011;21870;42.812;74.628;2023-03-13T03:29:32;8.23;;;7.63;;
35745;SDS011;21870;42.812;74.628;2023-03-13T03:31:58;7.90;;;7.20;;
35745;SDS011;21870;42.812;74.628;2023-03-13T03:34:24;6.72;;;6.03;;
35745;SDS011;21870;42.812;74.628;2023-03-13T03:36:50;6.55;;;6.05;;
35745;SDS011;21870;42.812;74.628;2023-03-13T03:39:17;6.20;;;5.80;;
35745;SDS011;21870;42.812;74.628;2023-03-13T03:41:43;7.72;;;7.07;;
35745;SDS011;21870;42.812;74.628;2023-03-13T03:44:09;10.40;;;6.63;;
35745;SDS011;21870;42.812;74.628;2023-03-13T03:46:35;7.65;;;7.05;;
35745;SDS011;21870;42.812;74.628;2023-03-13T03:49:01;7.60;;;6.90;;
35745;SDS011;21870;42.812;74.628;2023-03-13T03:51:27;7.05;;;6.47;;
35745;SDS011;21870;42.812;74.628;2023-03-13T03:53:53;7.32;;;6.72;;
35745;SDS011;21870;42.812;74.628;2023-03-13T03:56:19;7.68;;;7.00;;
35745;SDS011;21870;42.812;74.628;2023-03-13T03:58:45;6.22;;;5.72;;
35745;SDS011;21870;42.812;74.628;2023-03-13T04:01:11;6.60;;;6.00;;
35745;SDS011;21870;42.812;74.628;2023-03-13T04:03:37;6.55;;;5.88;;
35745;SDS011;21870;42.812;74.628;2023-03-13T04:06:03;5.05;;;4.63;;
35745;SDS011;21870;42.812;74.628;2023-03-13T04:08:31;6.93;;;6.22;;
35745;SDS011;21870;42.812;74.628;2023-03-13T04:10:59;5.20;;;4.80;;
35745;SDS011;21870;42.812;74.628;2023-03-13T04:13:26;4.22;;;3.92;;
35745;SDS011;21870;42.812;74.628;2023-03-13T04:15:52;4.45;;;4.03;;
35745;SDS011;21870;42.812;74.628;2023-03-13T04:18:18;3.80;;;3.50;;
35745;SDS011;21870;42.812;74.628;2023-03-13T04:20:45;3.88;;;3.58;;
35745;SDS011;21870;42.812;74.628;2023-03-13T04:23:11;4.82;;;4.43;;
35745;SDS011;21870;42.812;74.628;2023-03-13T04:25:37;4.80;;;4.47;;
35745;SDS011;21870;42.812;74.628;2023-03-13T04:28:03;5.22;;;4.72;;
35745;SDS011;21870;42.812;74.628;2023-03-13T04:30:29;4.15;;;3.78;;
35745;SDS011;21870;42.812;74.628;2023-03-13T04:32:55;5.03;;;4.53;;
35745;SDS011;21870;42.812;74.628;2023-03-13T04:35:21;5.82;;;5.43;;
35745;SDS011;21870;42.812;74.628;2023-03-13T04:37:47;6.40;;;5.90;;
35745;SDS011;21870;42.812;74.628;2023-03-13T04:40:13;7.13;;;6.47;;
35745;SDS011;21870;42.812;74.628;2023-03-13T04:42:40;8.27;;;7.68;;
35745;SDS011;21870;42.812;74.628;2023-03-13T04:45:07;11.00;;;10.10;;
35745;SDS011;21870;42.812;74.628;2023-03-13T04:47:36;10.32;;;8.65;;
35745;SDS011;21870;42.812;74.628;2023-03-13T04:50:02;11.25;;;10.18;;
35745;SDS011;21870;42.812;74.628;2023-03-13T04:52:29;8.10;;;7.28;;
35745;SDS011;21870;42.812;74.628;2023-03-13T04:54:55;7.43;;;6.82;;
35745;SDS011;21870;42.812;74.628;2023-03-13T04:57:21;7.88;;;7.25;;
35745;SDS011;21870;42.812;74.628;2023-03-13T04:59:47;8.05;;;7.45;;
35745;SDS011;21870;42.812;74.628;2023-03-13T05:02:13;9.02;;;6.63;;
35745;SDS011;21870;42.812;74.628;2023-03-13T05:04:39;6.97;;;6.30;;
35745;SDS011;21870;42.812;74.628;2023-03-13T05:07:05;6.88;;;6.20;;
35745;SDS011;21870;42.812;74.628;2023-03-13T05:09:31;9.35;;;7.95;;
35745;SDS011;21870;42.812;74.628;2023-03-13T05:11:57;7.85;;;6.68;;
35745;SDS011;21870;42.812;74.628;2023-03-13T05:14:23;7.90;;;6.65;;
35745;SDS011;21870;42.812;74.628;2023-03-13T05:16:49;6.63;;;5.85;;
35745;SDS011;21870;42.812;74.628;2023-03-13T05:19:15;6.03;;;5.53;;
35745;SDS011;21870;42.812;74.628;2023-03-13T05:21:42;6.35;;;5.75;;
35745;SDS011;21870;42.812;74.628;2023-03-13T05:24:08;6.28;;;5.78;;
35745;SDS011;21870;42.812;74.628;2023-03-13T05:26:34;6.70;;;5.50;;
35745;SDS011;21870;42.812;74.628;2023-03-13T05:29:00;6.55;;;4.28;;
35745;SDS011;21870;42.812;74.628;2023-03-13T05:31:26;3.95;;;3.60;;
35745;SDS011;21870;42.812;74.628;2023-03-13T05:33:53;5.05;;;3.88;;
35745;SDS011;21870;42.812;74.628;2023-03-13T05:36:19;5.47;;;4.45;;
35745;SDS011;21870;42.812;74.628;2023-03-13T05:38:45;5.38;;;4.70;;
35745;SDS011;21870;42.812;74.628;2023-03-13T05:41:11;4.60;;;4.20;;
35745;SDS011;21870;42.812;74.628;2023-03-13T05:43:38;5.22;;;4.82;;
35745;SDS011;21870;42.812;74.628;2023-03-13T05:46:04;4.97;;;4.65;;
35745;SDS011;21870;42.812;74.628;2023-03-13T05:48:30;4.60;;;4.30;;
35745;SDS011;21870;42.812;74.628;2023-03-13T05:50:57;6.03;;;5.43;;
35745;SDS011;21870;42.812;74.628;2023-03-13T05:53:24;5.88;;;5.30;;
35745;SDS011;21870;42.812;74.628;2023-03-13T05:55:50;6.80;;;6.10;;
35745;SDS011;21870;42.812;74.628;2023-03-13T05:58:17;6.18;;;5.25;;
35745;SDS011;21870;42.812;74.628;2023-03-13T06:00:43;5.43;;;4.93;;
35745;SDS011;21870;42.812;74.628;2023-03-13T06:03:09;5.22;;;4.72;;
35745;SDS011;21870;42.812;74.628;2023-03-13T06:05:35;6.88;;;6.30;;
35745;SDS011;21870;42.812;74.628;2023-03-13T06:08:01;7.35;;;5.10;;
35745;SDS011;21870;42.812;74.628;2023-03-13T06:10:27;7.30;;;4.85;;
35745;SDS011;21870;42.812;74.628;2023-03-13T06:12:54;8.20;;;5.93;;
35745;SDS011;21870;42.812;74.628;2023-03-13T06:15:20;6.45;;;5.93;;
35745;SDS011;21870;42.812;74.628;2023-03-13T06:17:47;14.25;;;13.10;;
35745;SDS011;21870;42.812;74.628;2023-03-13T06:20:13;5.95;;;5.45;;
35745;SDS011;21870;42.812;74.628;2023-03-13T06:22:40;7.90;;;7.15;;
35745;SDS011;21870;42.812;74.628;2023-03-13T06:25:06;5.65;;;4.90;;
35745;SDS011;21870;42.812;74.628;2023-03-13T06:27:32;6.63;;;6.03;;
35745;SDS011;21870;42.812;74.628;2023-03-13T06:30:02;8.38;;;4.90;;
35745;SDS011;21870;42.812;74.628;2023-03-13T06:32:28;5.78;;;5.28;;
35745;SDS011;21870;42.812;74.628;2023-03-13T06:34:55;10.80;;;9.80;;
35745;SDS011;21870;42.812;74.628;2023-03-13T06:37:21;12.32;;;11.25;;
35745;SDS011;21870;42.812;74.628;2023-03-13T06:39:47;7.93;;;7.25;;
35745;SDS011;21870;42.812;74.628;2023-03-13T06:42:13;5.22;;;4.80;;
35745;SDS011;21870;42.812;74.628;2023-03-13T06:44:39;8.10;;;7.18;;
35745;SDS011;21870;42.812;74.628;2023-03-13T06:47:06;7.22;;;5.75;;
35745;SDS011;21870;42.812;74.628;2023-03-13T06:49:32;6.38;;;5.13;;
35745;SDS011;21870;42.812;74.628;2023-03-13T06:51:58;6.45;;;4.40;;
35745;SDS011;21870;42.812;74.628;2023-03-13T06:54:24;3.40;;;3.20;;
35745;SDS011;21870;42.812;74.628;2023-03-13T06:56:50;3.63;;;3.42;;
35745;SDS011;21870;42.812;74.628;2023-03-13T06:59:16;3.88;;;3.58;;
35745;SDS011;21870;42.812;74.628;2023-03-13T07:01:42;4.15;;;3.75;;
35745;SDS011;21870;42.812;74.628;2023-03-13T07:04:10;4.68;;;3.65;;
35745;SDS011;21870;42.812;74.628;2023-03-13T07:06:37;4.13;;;3.70;;
35745;SDS011;21870;42.812;74.628;2023-03-13T07:09:03;5.63;;;4.35;;
35745;SDS011;21870;42.812;74.628;2023-03-13T07:11:30;6.80;;;4.40;;
35745;SDS011;21870;42.812;74.628;2023-03-13T07:13:56;4.68;;;3.70;;
35745;SDS011;21870;42.812;74.628;2023-03-13T07:16:25;4.03;;;3.72;;
35745;SDS011;21870;42.812;74.628;2023-03-13T07:18:52;4.10;;;3.53;;
35745;SDS011;21870;42.812;74.628;2023-03-13T07:21:18;4.45;;;4.05;;
35745;SDS011;21870;42.812;74.628;2023-03-13T07:23:44;4.95;;;4.03;;
35745;SDS011;21870;42.812;74.628;2023-03-13T07:26:11;6.20;;;4.30;;
35745;SDS011;21870;42.812;74.628;2023-03-13T07:28:39;5.82;;;5.25;;
35745;SDS011;21870;42.812;74.628;2023-03-13T07:33:35;7.90;;;4.13;;
35745;SDS011;21870;42.812;74.628;2023-03-13T07:36:02;5.30;;;4.90;;
35745;SDS011;21870;42.812;74.628;2023-03-13T07:38:28;5.68;;;5.28;;
35745;SDS011;21870;42.812;74.628;2023-03-13T07:40:55;6.72;;;5.57;;
35745;SDS011;21870;42.812;74.628;2023-03-13T07:43:22;7.20;;;6.55;;
35745;SDS011;21870;42.812;74.628;2023-03-13T07:45:50;7.30;;;6.80;;
35745;SDS011;21870;42.812;74.628;2023-03-13T07:48:17;10.32;;;7.53;;
35745;SDS011;21870;42.812;74.628;2023-03-13T07:50:44;8.32;;;7.53;;
35745;SDS011;21870;42.812;74.628;2023-03-13T07:53:10;9.07;;;8.30;;
35745;SDS011;21870;42.812;74.628;2023-03-13T07:55:36;11.05;;;10.13;;
35745;SDS011;21870;42.812;74.628;2023-03-13T07:58:02;10.30;;;9.57;;
35745;SDS011;21870;42.812;74.628;2023-03-13T08:00:31;11.38;;;10.40;;
35745;SDS011;21870;42.812;74.628;2023-03-13T08:02:57;12.98;;;11.48;;
35745;SDS011;21870;42.812;74.628;2023-03-13T08:05:23;11.70;;;10.82;;
35745;SDS011;21870;42.812;74.628;2023-03-13T08:07:49;15.93;;;14.52;;
35745;SDS011;21870;42.812;74.628;2023-03-13T08:10:15;16.88;;;15.43;;
35745;SDS011;21870;42.812;74.628;2023-03-13T08:12:41;21.05;;;18.80;;
35745;SDS011;21870;42.812;74.628;2023-03-13T08:15:08;19.10;;;17.25;;
35745;SDS011;21870;42.812;74.628;2023-03-13T08:17:34;16.92;;;15.73;;
35745;SDS011;21870;42.812;74.628;2023-03-13T08:20:00;16.23;;;14.85;;
35745;SDS011;21870;42.812;74.628;2023-03-13T08:22:26;17.08;;;15.52;;
35745;SDS011;21870;42.812;74.628;2023-03-13T08:24:52;16.67;;;15.07;;
35745;SDS011;21870;42.812;74.628;2023-03-13T08:27:18;17.58;;;16.17;;
35745;SDS011;21870;42.812;74.628;2023-03-13T08:29:44;16.38;;;15.00;;
35745;SDS011;21870;42.812;74.628;2023-03-13T08:32:10;19.55;;;16.45;;
35745;SDS011;21870;42.812;74.628;2023-03-13T08:34:37;17.58;;;15.93;;
35745;SDS011;21870;42.812;74.628;2023-03-13T08:37:03;18.20;;;16.17;;
35745;SDS011;21870;42.812;74.628;2023-03-13T08:39:29;22.08;;;17.10;;
35745;SDS011;21870;42.812;74.628;2023-03-13T08:41:55;22.88;;;17.33;;
35745;SDS011;21870;42.812;74.628;2023-03-13T08:44:21;17.38;;;15.95;;
35745;SDS011;21870;42.812;74.628;2023-03-13T08:46:47;15.10;;;13.93;;
35745;SDS011;21870;42.812;74.628;2023-03-13T08:49:14;18.13;;;16.17;;
35745;SDS011;21870;42.812;74.628;2023-03-13T08:51:41;19.08;;;17.20;;
35745;SDS011;21870;42.812;74.628;2023-03-13T08:54:08;18.42;;;16.38;;
35745;SDS011;21870;42.812;74.628;2023-03-13T08:56:35;15.75;;;14.30;;
35745;SDS011;21870;42.812;74.628;2023-03-13T08:59:02;15.25;;;13.90;;
35745;SDS011;21870;42.812;74.628;2023-03-13T09:01:31;15.70;;;14.30;;
35745;SDS011;21870;42.812;74.628;2023-03-13T09:03:58;15.27;;;13.88;;
35745;SDS011;21870;42.812;74.628;2023-03-13T09:06:24;16.08;;;14.68;;
35745;SDS011;21870;42.812;74.628;2023-03-13T09:08:51;15.68;;;14.27;;
35745;SDS011;21870;42.812;74.628;2023-03-13T09:11:18;19.52;;;15.55;;
35745;SDS011;21870;42.812;74.628;2023-03-13T09:13:46;16.75;;;15.20;;
35745;SDS011;21870;42.812;74.628;2023-03-13T09:16:18;16.98;;;15.20;;
35745;SDS011;21870;42.812;74.628;2023-03-13T09:18:46;15.90;;;14.55;;
35745;SDS011;21870;42.812;74.628;2023-03-13T09:21:13;17.45;;;16.15;;
35745;SDS011;21870;42.812;74.628;2023-03-13T09:23:41;16.90;;;15.25;;
35745;SDS011;21870;42.812;74.628;2023-03-13T09:26:07;15.85;;;14.45;;
35745;SDS011;21870;42.812;74.628;2023-03-13T09:28:34;17.08;;;15.30;;
35745;SDS011;21870;42.812;74.628;2023-03-13T09:31:08;16.58;;;14.98;;
35745;SDS011;21870;42.812;74.628;2023-03-13T09:33:42;15.23;;;13.95;;
35745;SDS011;21870;42.812;74.628;2023-03-13T09:36:09;16.80;;;15.60;;
35745;SDS011;21870;42.812;74.628;2023-03-13T09:38:36;15.00;;;13.70;;
35745;SDS011;21870;42.812;74.628;2023-03-13T09:41:04;17.98;;;16.40;;
35745;SDS011;21870;42.812;74.628;2023-03-13T09:43:57;17.75;;;16.45;;
35745;SDS011;21870;42.812;74.628;2023-03-13T09:49:32;25.50;;;18.83;;
35745;SDS011;21870;42.812;74.628;2023-03-13T09:52:22;19.88;;;18.02;;
35745;SDS011;21870;42.812;74.628;2023-03-13T09:55:00;21.05;;;15.10;;
35745;SDS011;21870;42.812;74.628;2023-03-13T09:58:05;19.63;;;17.67;;
35745;SDS011;21870;42.812;74.628;2023-03-13T10:00:52;17.88;;;16.38;;
35745;SDS011;21870;42.812;74.628;2023-03-13T10:03:22;18.98;;;17.20;;
35745;SDS011;21870;42.812;74.628;2023-03-13T10:05:57;22.42;;;18.15;;
35745;SDS011;21870;42.812;74.628;2023-03-13T10:08:31;19.38;;;17.73;;
35745;SDS011;21870;42.812;74.628;2023-03-13T10:13:44;20.30;;;18.15;;
35745;SDS011;21870;42.812;74.628;2023-03-13T10:19:36;19.88;;;18.23;;
35745;SDS011;21870;42.812;74.628;2023-03-13T10:22:14;19.27;;;17.67;;
35745;SDS011;21870;42.812;74.628;2023-03-13T10:27:18;20.50;;;18.35;;
35745;SDS011;21870;42.812;74.628;2023-03-13T10:29:44;25.23;;;20.35;;
35745;SDS011;21870;42.812;74.628;2023-03-13T10:32:14;24.20;;;21.73;;
35745;SDS011;21870;42.812;74.628;2023-03-13T10:37:26;21.63;;;19.67;;
35745;SDS011;21870;42.812;74.628;2023-03-13T10:39:54;22.60;;;20.17;;
35745;SDS011;21870;42.812;74.628;2023-03-13T10:42:39;25.35;;;21.55;;
35745;SDS011;21870;42.812;74.628;2023-03-13T10:45:15;21.73;;;19.60;;
35745;SDS011;21870;42.812;74.628;2023-03-13T10:47:44;21.95;;;20.08;;
35745;SDS011;21870;42.812;74.628;2023-03-13T10:50:20;23.65;;;20.67;;
35745;SDS011;21870;42.812;74.628;2023-03-13T10:52:51;23.83;;;21.45;;
35745;SDS011;21870;42.812;74.628;2023-03-13T10:55:20;21.58;;;19.58;;
35745;SDS011;21870;42.812;74.628;2023-03-13T10:58:03;21.90;;;19.77;;
35745;SDS011;21870;42.812;74.628;2023-03-13T11:00:37;22.85;;;20.45;;
35745;SDS011;21870;42.812;74.628;2023-03-13T11:03:16;22.80;;;20.73;;
35745;SDS011;21870;42.812;74.628;2023-03-13T11:05:58;20.88;;;19.25;;
35745;SDS011;21870;42.812;74.628;2023-03-13T11:08:34;23.10;;;20.98;;
35745;SDS011;21870;42.812;74.628;2023-03-13T11:11:04;22.08;;;20.25;;
35745;SDS011;21870;42.812;74.628;2023-03-13T11:13:43;31.30;;;28.60;;
35745;SDS011;21870;42.812;74.628;2023-03-13T11:16:20;26.83;;;24.48;;
35745;SDS011;21870;42.812;74.628;2023-03-13T11:21:53;23.05;;;20.95;;
35745;SDS011;21870;42.812;74.628;2023-03-13T11:36:01;25.10;;;22.88;;
35745;SDS011;21870;42.812;74.628;2023-03-13T11:38:35;25.88;;;23.73;;
35745;SDS011;21870;42.812;74.628;2023-03-13T12:05:50;25.83;;;23.20;;
35745;SDS011;21870;42.812;74.628;2023-03-13T12:08:29;27.65;;;25.02;;
35745;SDS011;21870;42.812;74.628;2023-03-13T12:11:16;24.70;;;22.50;;
35745;SDS011;21870;42.812;74.628;2023-03-13T12:14:27;28.52;;;25.48;;
35745;SDS011;21870;42.812;74.628;2023-03-13T12:16:57;25.45;;;22.90;;
35745;SDS011;21870;42.812;74.628;2023-03-13T12:19:47;25.67;;;23.10;;
35745;SDS011;21870;42.812;74.628;2023-03-13T12:22:16;20.90;;;19.13;;
35745;SDS011;21870;42.812;74.628;2023-03-13T12:24:55;21.13;;;19.27;;
35745;SDS011;21870;42.812;74.628;2023-03-13T12:27:32;23.17;;;21.17;;
35745;SDS011;21870;42.812;74.628;2023-03-13T12:30:05;21.25;;;19.35;;
35745;SDS011;21870;42.812;74.628;2023-03-13T12:32:44;20.58;;;18.77;;
35745;SDS011;21870;42.812;74.628;2023-03-13T12:35:29;20.83;;;18.95;;
35745;SDS011;21870;42.812;74.628;2023-03-13T12:40:40;23.67;;;21.50;;
35745;SDS011;21870;42.812;74.628;2023-03-13T12:43:18;25.48;;;22.48;;
35745;SDS011;21870;42.812;74.628;2023-03-13T12:46:06;26.98;;;24.33;;
35745;SDS011;21870;42.812;74.628;2023-03-13T12:57:16;30.02;;;27.38;;
35745;SDS011;21870;42.812;74.628;2023-03-13T12:59:55;33.83;;;28.60;;
35745;SDS011;21870;42.812;74.628;2023-03-13T13:02:29;34.83;;;28.48;;
35745;SDS011;21870;42.812;74.628;2023-03-13T13:04:57;31.67;;;28.23;;
35745;SDS011;21870;42.812;74.628;2023-03-13T13:07:36;32.50;;;29.25;;
35745;SDS011;21870;42.812;74.628;2023-03-13T13:20:45;37.65;;;33.92;;
35745;SDS011;21870;42.812;74.628;2023-03-13T13:25:50;36.55;;;32.88;;
35745;SDS011;21870;42.812;74.628;2023-03-13T13:30:49;37.40;;;33.67;;
35745;SDS011;21870;42.812;74.628;2023-03-13T13:38:34;37.42;;;33.00;;
35745;SDS011;21870;42.812;74.628;2023-03-13T13:43:37;35.90;;;32.60;;
35745;SDS011;21870;42.812;74.628;2023-03-13T13:46:21;32.70;;;29.70;;
35745;SDS011;21870;42.812;74.628;2023-03-13T13:51:30;33.25;;;29.40;;
35745;SDS011;21870;42.812;74.628;2023-03-13T13:54:01;34.92;;;30.13;;
35745;SDS011;21870;42.812;74.628;2023-03-13T14:07:09;30.05;;;26.40;;
35745;SDS011;21870;42.812;74.628;2023-03-13T14:09:54;28.23;;;25.52;;
35745;SDS011;21870;42.812;74.628;2023-03-13T14:12:44;29.15;;;26.48;;
35745;SDS011;21870;42.812;74.628;2023-03-13T14:15:26;26.65;;;23.85;;
35745;SDS011;21870;42.812;74.628;2023-03-13T14:17:56;27.73;;;25.13;;
35745;SDS011;21870;42.812;74.628;2023-03-13T14:22:54;30.83;;;28.02;;
35745;SDS011;21870;42.812;74.628;2023-03-13T14:25:23;33.88;;;30.48;;
35745;SDS011;21870;42.812;74.628;2023-03-13T14:27:50;35.75;;;31.63;;
35745;SDS011;21870;42.812;74.628;2023-03-13T14:30:18;33.63;;;30.33;;
35745;SDS011;21870;42.812;74.628;2023-03-13T14:32:45;34.70;;;30.58;;
35745;SDS011;21870;42.812;74.628;2023-03-13T14:35:13;35.67;;;31.90;;
35745;SDS011;21870;42.812;74.628;2023-03-13T14:37:45;35.20;;;31.55;;
35745;SDS011;21870;42.812;74.628;2023-03-13T14:40:25;35.60;;;31.90;;
35745;SDS011;21870;42.812;74.628;2023-03-13T14:43:02;38.88;;;34.83;;
35745;SDS011;21870;42.812;74.628;2023-03-13T14:48:03;41.67;;;36.88;;
35745;SDS011;21870;42.812;74.628;2023-03-13T14:50:45;42.33;;;38.22;;
35745;SDS011;21870;42.812;74.628;2023-03-13T14:53:15;39.33;;;35.20;;
35745;SDS011;21870;42.812;74.628;2023-03-13T14:55:43;33.28;;;29.85;;
35745;SDS011;21870;42.812;74.628;2023-03-13T14:58:23;33.92;;;30.30;;
35745;SDS011;21870;42.812;74.628;2023-03-13T15:00:54;37.30;;;33.40;;
35745;SDS011;21870;42.812;74.628;2023-03-13T15:03:27;29.48;;;26.80;;
35745;SDS011;21870;42.812;74.628;2023-03-13T15:08:36;30.58;;;25.17;;
35745;SDS011;21870;42.812;74.628;2023-03-13T15:13:59;35.13;;;31.52;;
35745;SDS011;21870;42.812;74.628;2023-03-13T15:16:26;35.92;;;32.22;;
35745;SDS011;21870;42.812;74.628;2023-03-13T15:18:54;35.42;;;31.52;;
35745;SDS011;21870;42.812;74.628;2023-03-13T15:21:38;36.33;;;31.90;;
35745;SDS011;21870;42.812;74.628;2023-03-13T15:24:12;31.30;;;28.00;;
35745;SDS011;21870;42.812;74.628;2023-03-13T15:26:39;34.92;;;31.63;;
35745;SDS011;21870;42.812;74.628;2023-03-13T15:29:05;33.55;;;30.15;;
35745;SDS011;21870;42.812;74.628;2023-03-13T15:31:33;33.72;;;30.42;;
35745;SDS011;21870;42.812;74.628;2023-03-13T15:33:59;35.30;;;31.50;;
35745;SDS011;21870;42.812;74.628;2023-03-13T15:36:27;35.55;;;31.88;;
35745;SDS011;21870;42.812;74.628;2023-03-13T15:38:54;35.88;;;32.33;;
35745;SDS011;21870;42.812;74.628;2023-03-13T15:41:20;35.47;;;32.22;;
35745;SDS011;21870;42.812;74.628;2023-03-13T15:43:47;34.55;;;30.95;;
35745;SDS011;21870;42.812;74.628;2023-03-13T15:46:19;37.22;;;33.53;;
35745;SDS011;21870;42.812;74.628;2023-03-13T15:48:46;38.20;;;34.63;;
35745;SDS011;21870;42.812;74.628;2023-03-13T15:51:13;37.95;;;34.15;;
35745;SDS011;21870;42.812;74.628;2023-03-13T15:53:40;37.25;;;33.97;;
35745;SDS011;21870;42.812;74.628;2023-03-13T15:56:14;37.78;;;33.85;;
35745;SDS011;21870;42.812;74.628;2023-03-13T15:58:45;38.53;;;34.72;;
35745;SDS011;21870;42.812;74.628;2023-03-13T16:01:12;37.65;;;34.17;;
35745;SDS011;21870;42.812;74.628;2023-03-13T16:03:40;43.33;;;38.95;;
35745;SDS011;21870;42.812;74.628;2023-03-13T16:06:24;41.92;;;38.00;;
35745;SDS011;21870;42.812;74.628;2023-03-13T16:08:59;42.85;;;38.42;;
35745;SDS011;21870;42.812;74.628;2023-03-13T16:11:27;44.63;;;40.22;;
35745;SDS011;21870;42.812;74.628;2023-03-13T16:13:54;44.33;;;39.97;;
35745;SDS011;21870;42.812;74.628;2023-03-13T16:16:24;41.53;;;37.33;;
35745;SDS011;21870;42.812;74.628;2023-03-13T16:18:55;40.45;;;36.33;;
35745;SDS011;21870;42.812;74.628;2023-03-13T16:21:24;41.63;;;37.65;;
35745;SDS011;21870;42.812;74.628;2023-03-13T16:23:55;42.40;;;38.15;;
35745;SDS011;21870;42.812;74.628;2023-03-13T16:26:22;45.03;;;40.65;;
35745;SDS011;21870;42.812;74.628;2023-03-13T16:28:50;46.92;;;42.25;;
35745;SDS011;21870;42.812;74.628;2023-03-13T16:33:44;44.08;;;39.97;;
35745;SDS011;21870;42.812;74.628;2023-03-13T16:36:12;49.90;;;45.03;;
35745;SDS011;21870;42.812;74.628;2023-03-13T16:38:43;51.58;;;46.70;;
35745;SDS011;21870;42.812;74.628;2023-03-13T16:41:12;48.28;;;43.40;;
35745;SDS011;21870;42.812;74.628;2023-03-13T16:43:42;45.35;;;40.90;;
35745;SDS011;21870;42.812;74.628;2023-03-13T16:46:12;49.05;;;44.08;;
35745;SDS011;21870;42.812;74.628;2023-03-13T16:48:44;56.90;;;51.30;;
35745;SDS011;21870;42.812;74.628;2023-03-13T16:51:20;61.85;;;55.47;;
35745;SDS011;21870;42.812;74.628;2023-03-13T16:53:49;55.55;;;50.20;;